Time;durP1;ratioP1;P1;durP2;ratioP2;P2;SDS_P1;SDS_P2;PMS_P1;PMS_P2;Temp;Humidity;BMP_temperature;BMP_pressure;BME280_temperature;BME280_humidity;BME280_pressure;Samples;Min_cycle;Max_cycle;Signal;HPM_P1;HPM_P2
2022/04/01 00:01:23;;;;;;;5.85;5.45;;;3.00;99.90;;;;;;5104792;27;20534;-61
2022/04/01 00:04:03;;;;;;;5.97;5.57;;;3.00;99.90;;;;;;5084822;28;20545;-61
2022/04/01 00:06:43;;;;;;;6.20;5.80;;;2.90;99.90;;;;;;5084035;27;21025;-61
2022/04/01 00:09:23;;;;;;;6.25;5.85;;;2.90;99.90;;;;;;5103858;27;20967;-60
2022/04/01 00:12:03;;;;;;;4.82;4.53;;;2.90;99.90;;;;;;5084733;28;20655;-60
2022/04/01 00:14:42;;;;;;;5.60;5.25;;;2.80;99.90;;;;;;5103324;27;20538;-61
2022/04/01 00:17:22;;;;;;;9.45;5.72;;;2.80;99.90;;;;;;5084182;27;20569;-61
2022/04/01 00:20:02;;;;;;;5.38;5.07;;;2.70;99.90;;;;;;5083748;27;20569;-61
2022/04/01 00:22:42;;;;;;;6.03;5.63;;;2.70;99.90;;;;;;5084694;27;20979;-61
2022/04/01 00:25:22;;;;;;;6.00;5.60;;;2.70;99.90;;;;;;5084134;28;20550;-61
2022/04/01 00:28:01;;;;;;;5.85;5.45;;;2.60;99.90;;;;;;5084657;27;20996;-61
2022/04/01 00:30:42;;;;;;;5.32;4.93;;;2.60;99.90;;;;;;5083938;27;20569;-61
2022/04/01 00:33:21;;;;;;;5.47;5.18;;;2.50;99.90;;;;;;5105148;27;21066;-61
2022/04/01 00:36:01;;;;;;;5.43;5.05;;;2.50;99.90;;;;;;5146052;27;20530;-61
2022/04/01 00:38:41;;;;;;;5.53;5.13;;;2.50;99.90;;;;;;5084924;27;20551;-61
2022/04/01 00:41:20;;;;;;;4.75;4.45;;;2.40;99.90;;;;;;5157084;27;20524;-60
2022/04/01 00:44:14;;;;;;;5.75;5.35;;;2.40;99.90;;;;;;5084734;27;20552;-61
2022/04/01 00:46:56;;;;;;;5.57;5.18;;;2.40;99.90;;;;;;5084131;28;20687;-61
2022/04/01 00:49:36;;;;;;;5.50;5.18;;;2.40;99.90;;;;;;5083995;27;20557;-61
2022/04/01 00:52:18;;;;;;;5.60;5.30;;;2.40;99.90;;;;;;5105028;27;21050;-60
2022/04/01 00:54:59;;;;;;;5.35;5.00;;;2.30;99.90;;;;;;5084849;27;20558;-61
2022/04/01 00:57:39;;;;;;;5.20;4.80;;;2.30;99.90;;;;;;5146104;27;20677;-61
2022/04/01 01:00:19;;;;;;;5.53;5.15;;;2.30;99.90;;;;;;5084462;28;20547;-61
2022/04/01 01:02:58;;;;;;;5.78;5.38;;;2.30;99.90;;;;;;5084815;28;20536;-61
2022/04/01 01:05:38;;;;;;;5.28;4.97;;;2.20;99.90;;;;;;5125222;27;20532;-61
2022/04/01 01:08:18;;;;;;;5.22;4.93;;;2.20;99.90;;;;;;5084875;27;20606;-61
2022/04/01 01:10:58;;;;;;;5.90;5.55;;;2.20;99.90;;;;;;5083937;27;20979;-61
2022/04/01 01:13:39;;;;;;;5.10;4.80;;;2.20;99.90;;;;;;5123372;27;20667;-61
2022/04/01 01:16:19;;;;;;;4.70;4.40;;;2.20;99.90;;;;;;5084547;28;20565;-61
2022/04/01 01:19:05;;;;;;;4.60;4.35;;;2.10;99.90;;;;;;5084394;28;21055;-61
2022/04/01 01:21:45;;;;;;;4.95;4.65;;;2.10;99.90;;;;;;5146213;27;20535;-61
2022/04/01 01:24:28;;;;;;;4.95;4.65;;;2.20;99.90;;;;;;5084897;27;20590;-61
2022/04/01 01:27:10;;;;;;;5.53;5.22;;;2.20;99.90;;;;;;5145934;27;21094;-61
2022/04/01 01:29:49;;;;;;;5.18;4.88;;;2.10;99.90;;;;;;5083968;27;20668;-61
2022/04/01 01:32:32;;;;;;;4.95;4.65;;;2.10;99.90;;;;;;5105558;27;20881;-61
2022/04/01 01:35:13;;;;;;;5.45;5.15;;;2.10;99.90;;;;;;5084718;28;20556;-61
2022/04/01 01:37:52;;;;;;;5.18;4.88;;;2.10;99.90;;;;;;5084961;27;20585;-61
2022/04/01 01:40:32;;;;;;;5.00;4.70;;;2.10;99.90;;;;;;5083735;28;20536;-61
2022/04/01 01:43:13;;;;;;;5.20;4.90;;;2.10;99.90;;;;;;5084659;28;20543;-61
2022/04/01 01:45:53;;;;;;;5.00;4.70;;;2.10;99.90;;;;;;5084605;28;20551;-61
2022/04/01 01:48:33;;;;;;;4.80;4.50;;;2.10;99.90;;;;;;5084690;27;20561;-61
2022/04/01 01:57:08;;;;;;;5.05;4.75;;;2.10;99.90;;;;;;5080202;27;20593;-61
2022/04/01 01:59:48;;;;;;;4.57;4.32;;;2.20;99.90;;;;;;5083371;27;20577;-61
2022/04/01 02:02:27;;;;;;;4.55;4.25;;;2.20;99.90;;;;;;5084879;28;20555;-61
2022/04/01 02:05:08;;;;;;;4.55;4.32;;;2.20;99.90;;;;;;5085090;27;20574;-61
2022/04/01 02:07:47;;;;;;;4.93;4.63;;;2.20;99.90;;;;;;5084636;28;20814;-61
2022/04/01 02:10:27;;;;;;;4.90;4.60;;;2.20;99.90;;;;;;5124050;27;20544;-61
2022/04/01 02:13:07;;;;;;;4.75;4.45;;;2.20;99.90;;;;;;5084433;28;20994;-61
2022/04/01 02:15:46;;;;;;;5.82;5.43;;;2.20;99.90;;;;;;5084298;28;21079;-61
2022/04/01 02:18:26;;;;;;;5.15;4.85;;;2.20;99.90;;;;;;5084888;28;20672;-61
2022/04/01 02:21:10;;;;;;;5.20;4.90;;;2.20;99.90;;;;;;5145896;27;20542;-60
2022/04/01 02:23:51;;;;;;;5.72;5.43;;;2.20;99.90;;;;;;5084506;28;20569;-61
2022/04/01 02:26:31;;;;;;;5.35;5.05;;;2.20;99.90;;;;;;5084564;27;20613;-61
2022/04/01 02:29:10;;;;;;;4.93;4.63;;;2.20;99.90;;;;;;5104646;27;20550;-61
2022/04/01 02:31:51;;;;;;;5.85;5.45;;;2.20;99.90;;;;;;5146472;27;20557;-61
2022/04/01 02:34:32;;;;;;;5.20;4.90;;;2.20;99.90;;;;;;5082945;27;20536;-60
2022/04/01 02:37:11;;;;;;;4.82;4.53;;;2.20;99.90;;;;;;5084401;27;21228;-61
2022/04/01 02:39:51;;;;;;;5.18;4.88;;;2.20;99.90;;;;;;5083803;27;20562;-61
2022/04/01 02:42:31;;;;;;;4.97;4.68;;;2.20;99.90;;;;;;5085017;27;20532;-61
2022/04/01 02:45:11;;;;;;;4.80;4.50;;;2.20;99.90;;;;;;5084609;27;20565;-61
2022/04/01 02:47:51;;;;;;;5.22;4.85;;;2.20;99.90;;;;;;5084609;27;21021;-61
2022/04/01 02:50:31;;;;;;;5.07;4.78;;;2.20;99.90;;;;;;5124686;27;20597;-60
2022/04/01 02:53:11;;;;;;;5.15;4.85;;;2.20;99.90;;;;;;5084794;28;20574;-61
2022/04/01 02:55:51;;;;;;;4.85;4.57;;;2.20;99.90;;;;;;5145682;27;21088;-60
2022/04/01 02:58:30;;;;;;;5.38;5.07;;;2.20;99.90;;;;;;5084907;27;20573;-61
2022/04/01 03:01:10;;;;;;;4.85;4.55;;;2.20;99.90;;;;;;5084084;27;20540;-61
2022/04/01 03:03:50;;;;;;;5.30;4.85;;;2.20;99.90;;;;;;5084664;28;21083;-61
2022/04/01 03:06:29;;;;;;;4.78;4.47;;;2.20;99.90;;;;;;5104789;27;20561;-61
2022/04/01 03:09:10;;;;;;;4.72;4.43;;;2.20;99.90;;;;;;5125323;27;20532;-61
2022/04/01 03:11:50;;;;;;;4.80;4.50;;;2.20;99.90;;;;;;5105647;27;20898;-61
2022/04/01 03:14:29;;;;;;;5.10;4.80;;;2.20;99.90;;;;;;5084574;27;20553;-61
2022/04/01 03:17:10;;;;;;;4.70;4.40;;;2.20;99.90;;;;;;5084459;28;21045;-61
2022/04/01 03:19:50;;;;;;;4.70;4.40;;;2.20;99.90;;;;;;5145261;27;20649;-61
2022/04/01 03:22:30;;;;;;;5.35;4.95;;;2.20;99.90;;;;;;5085077;28;20660;-61
2022/04/01 03:25:13;;;;;;;4.68;4.38;;;2.20;99.90;;;;;;5083896;27;20561;-61
2022/04/01 03:27:53;;;;;;;4.95;4.65;;;2.20;99.90;;;;;;5125096;27;20884;-61
2022/04/01 03:30:33;;;;;;;5.22;4.93;;;2.10;99.90;;;;;;5145671;27;20538;-61
2022/04/01 03:33:13;;;;;;;5.50;5.20;;;2.20;99.90;;;;;;5082882;28;20675;-61
2022/04/01 03:35:53;;;;;;;5.10;4.80;;;2.10;99.90;;;;;;5084655;27;20565;-61
2022/04/01 03:38:33;;;;;;;5.00;4.60;;;2.10;99.90;;;;;;5125536;27;20536;-61
2022/04/01 03:41:12;;;;;;;5.03;4.72;;;2.10;99.90;;;;;;5083362;28;20683;-61
2022/04/01 03:43:52;;;;;;;4.15;3.95;;;2.20;99.90;;;;;;5146034;27;20535;-61
2022/04/01 03:46:47;;;;;;;4.32;4.13;;;2.10;99.90;;;;;;5084623;27;20548;-61
2022/04/01 03:49:27;;;;;;;4.65;4.35;;;2.20;99.90;;;;;;5103932;27;21581;-61
2022/04/01 03:52:08;;;;;;;5.32;5.03;;;2.10;99.90;;;;;;5105067;27;20595;-61
2022/04/01 03:54:48;;;;;;;4.28;4.00;;;2.20;99.90;;;;;;5084590;27;20565;-59
2022/04/01 03:57:36;;;;;;;4.03;3.83;;;2.20;99.90;;;;;;5084203;27;21122;-60
2022/04/01 04:00:17;;;;;;;3.58;3.38;;;2.10;99.90;;;;;;5104231;27;20538;-61
2022/04/01 04:02:57;;;;;;;4.32;4.03;;;2.20;99.90;;;;;;5084603;27;20587;-60
2022/04/01 04:05:39;;;;;;;4.53;4.22;;;2.20;99.90;;;;;;5104069;27;21071;-61
2022/04/01 04:08:20;;;;;;;3.97;3.67;;;2.20;99.90;;;;;;5058655;27;20564;-60
2022/04/01 04:10:59;;;;;;;5.13;4.70;;;2.20;99.90;;;;;;5083118;27;20955;-61
2022/04/01 04:13:41;;;;;;;4.15;3.95;;;2.20;99.90;;;;;;5084057;28;20615;-61
2022/04/01 04:16:29;;;;;;;3.78;3.58;;;2.10;99.90;;;;;;5084725;28;20676;-60
2022/04/01 04:19:10;;;;;;;3.80;3.55;;;2.10;99.90;;;;;;5084899;28;20668;-61
2022/04/01 04:21:54;;;;;;;3.88;3.67;;;2.10;99.90;;;;;;5105882;27;20555;-61
2022/04/01 04:24:49;;;;;;;3.58;3.38;;;2.20;99.90;;;;;;5125496;27;20543;-61
2022/04/01 04:27:30;;;;;;;2.97;2.78;;;2.20;99.90;;;;;;5071396;28;21207;-60
2022/04/01 04:30:11;;;;;;;3.45;3.25;;;2.20;99.90;;;;;;5104116;27;20894;-61
2022/04/01 04:32:56;;;;;;;3.55;3.35;;;2.10;99.90;;;;;;5082796;27;20683;-61
2022/04/01 04:35:38;;;;;;;3.90;3.70;;;2.10;99.90;;;;;;5084048;28;21096;-61
2022/04/01 04:38:20;;;;;;;3.38;3.15;;;2.10;99.90;;;;;;5083809;28;21181;-61
2022/04/01 04:41:01;;;;;;;3.53;3.33;;;2.10;99.90;;;;;;5136388;27;20544;-61
2022/04/01 04:43:44;;;;;;;3.42;3.22;;;2.10;99.90;;;;;;5104670;27;20823;-61
2022/04/01 04:46:24;;;;;;;3.80;3.50;;;2.10;99.90;;;;;;5105031;27;20553;-61
2022/04/01 04:49:04;;;;;;;3.72;3.35;;;2.00;99.90;;;;;;5105084;27;20533;-61
2022/04/01 04:51:43;;;;;;;3.33;3.13;;;2.10;99.90;;;;;;5084534;27;20667;-61
2022/04/01 04:54:25;;;;;;;4.03;3.75;;;2.00;99.90;;;;;;5125488;27;20573;-61
2022/04/01 04:57:06;;;;;;;3.75;3.45;;;2.00;99.90;;;;;;5084411;27;20585;-61
2022/04/01 04:59:48;;;;;;;3.20;2.90;;;2.00;99.90;;;;;;5083775;27;20565;-61
2022/04/01 05:02:48;;;;;;;3.20;3.03;;;2.00;99.90;;;;;;5084602;27;20562;-60
2022/04/01 05:05:32;;;;;;;3.20;3.00;;;2.00;99.90;;;;;;5105110;27;20545;-61
2022/04/01 05:08:26;;;;;;;3.40;3.20;;;2.00;99.90;;;;;;5084912;27;20581;-61
2022/04/01 05:11:13;;;;;;;4.85;4.47;;;2.00;99.90;;;;;;5104832;27;20853;-61
2022/04/01 05:14:00;;;;;;;6.45;5.95;;;2.00;99.90;;;;;;5145934;27;20542;-61
2022/04/01 05:16:48;;;;;;;3.33;3.13;;;2.00;99.90;;;;;;5145283;27;20542;-61
2022/04/01 05:19:31;;;;;;;3.50;3.30;;;2.00;99.90;;;;;;5083529;28;20554;-61
2022/04/01 05:22:11;;;;;;;3.80;3.60;;;2.00;99.90;;;;;;5084770;28;20671;-61
2022/04/01 05:24:53;;;;;;;3.20;3.00;;;2.00;99.90;;;;;;5084439;28;20659;-61
2022/04/01 05:27:40;;;;;;;3.58;3.38;;;2.00;99.90;;;;;;5104270;27;20582;-61
2022/04/01 05:30:25;;;;;;;3.67;3.47;;;2.00;99.90;;;;;;5083811;28;21027;-61
2022/04/01 05:33:09;;;;;;;3.28;2.97;;;2.00;99.90;;;;;;5083172;28;21253;-60
2022/04/01 05:35:54;;;;;;;3.90;3.60;;;2.00;99.90;;;;;;5084541;27;20579;-61
2022/04/01 05:38:34;;;;;;;3.72;3.53;;;2.00;99.90;;;;;;5084216;27;20532;-60
2022/04/01 05:41:17;;;;;;;3.80;3.50;;;2.00;99.90;;;;;;5103166;27;20553;-61
2022/04/01 05:43:58;;;;;;;3.63;3.42;;;2.00;99.90;;;;;;5083754;28;20660;-61
2022/04/01 05:46:39;;;;;;;3.53;3.33;;;2.10;99.90;;;;;;5083561;28;20691;-61
2022/04/01 05:49:19;;;;;;;3.30;3.03;;;2.10;99.90;;;;;;5088943;22;20911;-62
2022/04/01 05:51:59;;;;;;;3.40;3.20;;;2.10;99.90;;;;;;5144087;27;20538;-62
2022/04/01 05:54:40;;;;;;;3.78;3.47;;;2.10;99.90;;;;;;5102816;27;20562;-62
2022/04/01 05:57:21;;;;;;;4.10;3.80;;;2.10;99.90;;;;;;5084116;27;20910;-61
2022/04/01 06:00:05;;;;;;;3.65;3.45;;;2.10;99.90;;;;;;5125410;27;20560;-62
2022/04/01 06:03:18;;;;;;;3.47;3.28;;;2.10;99.90;;;;;;5147286;27;20550;-62
2022/04/01 06:06:04;;;;;;;4.30;4.00;;;2.10;99.90;;;;;;5084503;27;20552;-62
2022/04/01 06:08:58;;;;;;;3.95;3.65;;;2.10;99.90;;;;;;5105350;27;20546;-63
2022/04/01 06:11:50;;;;;;;3.72;3.53;;;2.10;99.90;;;;;;5105127;27;20568;-62
2022/04/01 06:14:39;;;;;;;3.63;3.42;;;2.20;99.90;;;;;;5084797;27;20617;-62
2022/04/01 06:17:31;;;;;;;4.00;3.80;;;2.20;99.90;;;;;;5104880;27;20550;-62
2022/04/01 06:20:16;;;;;;;4.00;3.70;;;2.20;99.90;;;;;;5125018;27;20672;-62
2022/04/01 06:23:01;;;;;;;3.85;3.13;;;2.30;99.90;;;;;;5105435;27;20530;-61
2022/04/01 06:25:47;;;;;;;3.03;2.83;;;2.30;99.90;;;;;;5104753;27;20542;-61
2022/04/01 06:28:29;;;;;;;3.35;3.15;;;2.30;99.90;;;;;;5125291;27;20566;-62
2022/04/01 06:31:12;;;;;;;3.08;2.88;;;2.30;99.90;;;;;;5124826;27;20565;-62
2022/04/01 06:34:02;;;;;;;3.75;3.45;;;2.30;99.90;;;;;;5125234;27;20539;-62
2022/04/01 06:36:48;;;;;;;3.25;3.05;;;2.30;99.90;;;;;;5125170;27;20608;-62
2022/04/01 06:39:38;;;;;;;4.10;3.85;;;2.40;99.90;;;;;;5124340;27;20579;-62
2022/04/01 06:42:20;;;;;;;3.75;3.55;;;2.40;99.90;;;;;;5103311;27;20533;-62
2022/04/01 06:45:01;;;;;;;4.05;3.85;;;2.40;99.90;;;;;;5146278;27;20546;-62
2022/04/01 06:47:40;;;;;;;5.07;4.78;;;2.50;99.90;;;;;;5084527;28;20666;-61
2022/04/01 06:50:21;;;;;;;6.25;5.88;;;2.50;99.90;;;;;;5144350;27;20419;-62
2022/04/01 06:53:00;;;;;;;8.00;7.38;;;2.60;99.90;;;;;;5146289;27;20568;-62
2022/04/01 06:55:40;;;;;;;5.47;5.10;;;2.70;99.90;;;;;;5146272;27;21031;-61
2022/04/01 06:58:20;;;;;;;5.57;5.18;;;2.80;99.90;;;;;;5085825;27;20604;-61
2022/04/01 07:01:00;;;;;;;8.50;8.00;;;2.90;99.90;;;;;;5025566;28;20428;-62
2022/04/01 07:03:39;;;;;;;4.10;3.80;;;2.80;99.90;;;;;;5126777;27;20540;-62
2022/04/01 07:06:19;;;;;;;5.18;4.78;;;2.80;99.90;;;;;;5106349;27;20537;-61
2022/04/01 07:08:59;;;;;;;6.05;5.68;;;2.80;99.90;;;;;;5127070;27;20573;-62
2022/04/01 07:11:40;;;;;;;4.40;4.10;;;2.80;99.90;;;;;;5127432;27;21200;-62
2022/04/01 07:14:19;;;;;;;4.97;4.68;;;2.80;99.90;;;;;;5085926;28;20543;-61
2022/04/01 07:16:59;;;;;;;5.03;4.65;;;2.90;99.90;;;;;;5106336;27;20545;-60
2022/04/01 07:19:38;;;;;;;5.18;4.85;;;3.00;99.90;;;;;;5126384;27;20540;-62
2022/04/01 07:22:18;;;;;;;4.72;4.43;;;3.00;99.90;;;;;;5126569;27;20569;-62
2022/04/01 07:24:58;;;;;;;4.75;4.45;;;3.00;99.90;;;;;;5126374;27;20604;-61
2022/04/01 07:27:38;;;;;;;4.93;4.63;;;3.10;99.90;;;;;;5146107;27;21131;-62
2022/04/01 07:30:18;;;;;;;4.05;3.85;;;3.20;99.90;;;;;;5085313;28;20682;-62
2022/04/01 07:32:59;;;;;;;4.65;4.35;;;3.40;99.90;;;;;;5147072;27;20542;-61
2022/04/01 07:35:39;;;;;;;4.80;4.50;;;3.50;99.90;;;;;;5126257;27;20552;-62
2022/04/01 07:38:19;;;;;;;4.53;4.22;;;3.50;99.90;;;;;;5148115;27;20661;-61
2022/04/01 07:40:58;;;;;;;4.50;4.20;;;3.50;99.90;;;;;;5126306;27;20541;-61
2022/04/01 07:43:39;;;;;;;4.93;4.63;;;3.60;99.90;;;;;;5147140;27;20556;-60
2022/04/01 07:46:18;;;;;;;6.00;5.60;;;3.60;99.90;;;;;;5104970;27;20545;-61
2022/04/01 07:48:59;;;;;;;5.93;5.43;;;3.70;99.90;;;;;;5105002;27;20559;-61
2022/04/01 07:51:38;;;;;;;5.55;5.22;;;3.80;99.90;;;;;;5146112;27;20554;-61
2022/04/01 07:54:18;;;;;;;6.22;5.82;;;3.90;99.90;;;;;;5145964;27;20665;-61
2022/04/01 07:56:57;;;;;;;4.82;4.53;;;3.90;99.90;;;;;;5146012;27;20538;-61
2022/04/01 07:59:38;;;;;;;6.78;6.38;;;3.90;99.90;;;;;;5106131;27;20721;-62
2022/04/01 08:02:17;;;;;;;7.65;7.15;;;4.00;99.90;;;;;;5106575;27;20537;-62
2022/04/01 08:04:57;;;;;;;6.05;5.65;;;4.10;99.90;;;;;;5147423;27;20542;-63
2022/04/01 08:07:37;;;;;;;6.43;6.03;;;4.10;99.90;;;;;;5126908;27;20529;-60
2022/04/01 08:10:16;;;;;;;4.63;4.32;;;4.00;99.90;;;;;;5147007;27;20538;-60
2022/04/01 08:12:56;;;;;;;5.55;5.25;;;3.90;99.90;;;;;;5147280;27;20550;-61
2022/04/01 08:15:36;;;;;;;5.30;4.90;;;3.90;99.90;;;;;;5106881;27;20615;-61
2022/04/01 08:18:16;;;;;;;5.30;4.90;;;3.90;99.90;;;;;;5147869;27;21127;-62
2022/04/01 08:20:56;;;;;;;6.20;5.80;;;3.90;99.90;;;;;;5106529;27;20542;-62
2022/04/01 08:23:37;;;;;;;5.38;4.88;;;3.90;99.90;;;;;;5127193;27;20541;-62
2022/04/01 08:26:17;;;;;;;5.93;5.53;;;4.00;99.90;;;;;;5147918;27;20632;-62
2022/04/01 08:28:57;;;;;;;5.57;5.20;;;4.00;99.90;;;;;;5153871;27;20663;-60
2022/04/01 08:31:37;;;;;;;5.00;4.70;;;3.90;99.90;;;;;;5147597;27;20538;-61
2022/04/01 08:34:17;;;;;;;6.05;5.65;;;3.90;99.90;;;;;;5147554;27;20576;-62
2022/04/01 08:36:56;;;;;;;6.00;5.60;;;4.00;99.90;;;;;;5126624;27;21016;-61
2022/04/01 08:39:43;;;;;;;7.55;7.15;;;4.30;99.90;;;;;;5159023;27;21161;-62
2022/04/01 08:42:23;;;;;;;6.10;5.70;;;4.50;99.90;;;;;;5105873;27;20558;-61
2022/04/01 08:45:06;;;;;;;5.47;5.07;;;4.60;99.90;;;;;;5126756;27;20547;-62
2022/04/01 08:47:46;;;;;;;6.47;6.07;;;4.60;99.90;;;;;;5085395;28;21196;-62
2022/04/01 08:50:25;;;;;;;5.05;4.63;;;4.50;99.90;;;;;;5106079;27;20783;-61
2022/04/01 08:53:05;;;;;;;5.43;5.13;;;4.40;99.90;;;;;;5147539;27;20645;-61
2022/04/01 08:55:49;;;;;;;5.10;4.80;;;4.40;99.90;;;;;;5146886;27;20538;-61
2022/04/01 08:58:28;;;;;;;6.15;5.75;;;4.50;99.90;;;;;;5126637;27;20574;-60
2022/04/01 09:01:08;;;;;;;5.05;4.65;;;4.50;99.90;;;;;;5147316;27;20568;-60
2022/04/01 09:03:48;;;;;;;6.57;6.18;;;4.50;99.90;;;;;;5086233;27;21021;-60
2022/04/01 09:06:27;;;;;;;5.07;4.78;;;4.50;99.90;;;;;;5148474;27;20538;-61
2022/04/01 09:09:22;;;;;;;5.22;4.93;;;4.40;99.90;;;;;;5086095;27;20573;-60
2022/04/01 09:12:13;;;;;;;4.90;4.60;;;4.40;99.90;;;;;;5106837;27;21051;-60
2022/04/01 09:14:54;;;;;;;5.68;5.28;;;4.10;99.90;;;;;;5148009;27;20527;-60
2022/04/01 09:17:44;;;;;;;5.38;4.97;;;4.00;99.90;;;;;;5147999;27;20553;-60
2022/04/01 09:20:23;;;;;;;4.90;4.60;;;3.80;99.90;;;;;;5126688;27;20560;-60
2022/04/01 09:23:04;;;;;;;5.60;5.22;;;3.80;99.90;;;;;;5127150;27;20588;-59
2022/04/01 09:25:49;;;;;;;5.30;5.00;;;4.00;99.90;;;;;;5147859;27;20564;-60
2022/04/01 09:28:31;;;;;;;4.95;4.65;;;4.30;99.90;;;;;;5149466;27;20556;-60
2022/04/01 09:31:13;;;;;;;5.55;5.15;;;4.40;99.90;;;;;;5106094;27;20553;-60
2022/04/01 09:33:54;;;;;;;6.07;5.68;;;4.40;99.90;;;;;;5127166;27;20539;-60
2022/04/01 09:36:36;;;;;;;5.45;5.15;;;4.50;99.90;;;;;;5147715;27;20546;-61
2022/04/01 09:39:19;;;;;;;5.45;5.07;;;4.60;99.90;;;;;;5126753;27;20572;-59
2022/04/01 09:41:59;;;;;;;6.20;5.80;;;4.70;99.90;;;;;;5147521;27;21189;-60
2022/04/01 09:44:40;;;;;;;5.97;5.57;;;4.80;99.90;;;;;;5147611;27;20571;-60
2022/04/01 09:47:21;;;;;;;6.90;6.40;;;5.00;99.90;;;;;;5147846;27;20535;-60
2022/04/01 09:50:04;;;;;;;6.05;5.68;;;5.10;99.90;;;;;;5162760;27;20545;-60
2022/04/01 09:52:45;;;;;;;6.22;5.82;;;5.30;99.90;;;;;;5086447;28;20672;-60
2022/04/01 09:55:25;;;;;;;6.10;5.70;;;5.60;99.90;;;;;;5126976;27;20549;-59
2022/04/01 09:58:06;;;;;;;7.10;6.60;;;6.00;99.90;;;;;;5127041;27;21248;-60
2022/04/01 10:00:45;;;;;;;6.10;5.70;;;6.40;99.90;;;;;;5126621;27;20544;-60
2022/04/01 10:03:24;;;;;;;5.90;5.55;;;6.50;99.90;;;;;;5086205;27;20562;-60
2022/04/01 10:06:04;;;;;;;5.63;5.32;;;6.50;99.90;;;;;;5105916;27;20545;-59
2022/04/01 10:08:45;;;;;;;5.38;5.07;;;6.40;99.90;;;;;;5126496;27;20582;-60
2022/04/01 10:11:25;;;;;;;5.35;5.05;;;6.40;99.90;;;;;;5085791;28;20659;-60
2022/04/01 10:14:19;;;;;;;5.35;5.05;;;6.20;99.90;;;;;;5126616;27;20588;-60
2022/04/01 10:17:01;;;;;;;6.85;6.30;;;6.10;99.90;;;;;;5126840;27;20609;-60
2022/04/01 10:19:47;;;;;;;5.57;5.10;;;6.10;99.90;;;;;;5106066;27;20685;-60
2022/04/01 10:22:27;;;;;;;5.18;4.88;;;6.20;99.90;;;;;;5106214;27;20654;-60
2022/04/01 10:25:15;;;;;;;6.05;5.55;;;6.30;99.90;;;;;;5126937;27;20556;-60
2022/04/01 10:27:55;;;;;;;5.95;5.50;;;6.60;99.90;;;;;;5085186;28;20971;-59
2022/04/01 10:30:36;;;;;;;6.55;6.05;;;6.70;99.90;;;;;;5125859;27;20552;-60
2022/04/01 10:33:23;;;;;;;5.75;5.35;;;6.90;99.90;;;;;;5106252;27;20567;-60
2022/04/01 10:36:15;;;;;;;5.53;5.22;;;7.00;99.90;;;;;;5086230;27;20541;-59
2022/04/01 10:39:05;;;;;;;5.95;5.55;;;7.20;99.90;;;;;;5084076;22;21046;-62
2022/04/01 10:42:06;;;;;;;4.55;4.25;;;7.20;99.90;;;;;;5106732;27;20706;-61
2022/04/01 10:44:54;;;;;;;7.78;7.18;;;6.90;99.90;;;;;;5106023;27;21127;-61
2022/04/01 10:53:48;;;;;;;5.35;5.05;;;6.80;99.90;;;;;;5086248;27;20558;-61
2022/04/01 10:56:34;;;;;;;4.78;4.47;;;7.00;99.90;;;;;;5086101;27;20539;-61
2022/04/01 10:59:16;;;;;;;5.07;4.57;;;7.00;99.90;;;;;;5085668;27;20573;-61
2022/04/01 11:02:07;;;;;;;4.70;4.40;;;7.00;99.90;;;;;;5106753;27;20533;-59
2022/04/01 11:04:48;;;;;;;5.65;5.32;;;6.60;99.90;;;;;;5086139;27;20554;-61
2022/04/01 11:07:35;;;;;;;4.82;4.53;;;6.50;99.90;;;;;;5085240;27;20570;-62
2022/04/01 11:10:25;;;;;;;5.38;4.97;;;6.50;99.90;;;;;;5105948;27;20546;-62
2022/04/01 11:13:05;;;;;;;5.20;4.90;;;6.60;99.90;;;;;;5086126;28;20699;-61
2022/04/01 11:15:46;;;;;;;5.25;4.95;;;6.50;99.90;;;;;;5085751;27;20620;-62
2022/04/01 11:18:26;;;;;;;5.35;5.05;;;6.30;99.90;;;;;;5085687;28;20580;-62
2022/04/01 11:21:06;;;;;;;4.05;3.85;;;6.10;99.90;;;;;;5084949;27;20575;-61
2022/04/01 11:24:02;;;;;;;4.78;4.47;;;5.60;99.90;;;;;;5086129;27;20565;-58
2022/04/01 11:26:42;;;;;;;5.63;5.25;;;5.30;99.90;;;;;;5084406;27;20602;-61
2022/04/01 11:29:24;;;;;;;5.38;5.07;;;5.20;99.90;;;;;;5085388;27;20660;-62
2022/04/01 11:32:08;;;;;;;5.38;4.97;;;5.40;99.90;;;;;;5086113;27;20617;-62
2022/04/01 11:34:57;;;;;;;4.93;4.63;;;5.60;99.90;;;;;;5085916;27;21029;-61
2022/04/01 11:37:39;;;;;;;5.07;4.78;;;5.60;99.90;;;;;;5085741;27;20569;-62
2022/04/01 11:40:22;;;;;;;5.35;5.05;;;5.60;99.90;;;;;;5083864;27;20573;-62
2022/04/01 11:43:03;;;;;;;5.55;5.25;;;5.90;99.90;;;;;;5084963;27;21074;-62
2022/04/01 11:45:45;;;;;;;4.38;4.07;;;6.60;99.90;;;;;;5085341;28;20550;-61
2022/04/01 11:48:28;;;;;;;4.88;4.57;;;7.00;99.90;;;;;;5081456;27;20616;-61
2022/04/01 11:51:12;;;;;;;5.15;4.75;;;7.30;99.90;;;;;;5105165;27;20910;-62
2022/04/01 11:53:56;;;;;;;5.00;4.70;;;7.30;99.90;;;;;;5085260;28;20675;-62
2022/04/01 11:56:35;;;;;;;5.40;5.10;;;7.00;99.90;;;;;;5084621;27;21157;-62
2022/04/01 11:59:15;;;;;;;6.03;5.63;;;6.50;99.90;;;;;;5072615;27;20588;-62
2022/04/01 12:01:58;;;;;;;6.55;6.15;;;6.10;99.90;;;;;;5083394;27;20550;-61
2022/04/01 12:04:38;;;;;;;6.60;6.20;;;6.00;99.90;;;;;;5104362;27;20538;-61
2022/04/01 12:10:19;;;;;;;5.55;5.20;;;6.00;99.90;;;;;;5104152;27;21004;-62
2022/04/01 12:13:02;;;;;;;5.70;5.40;;;6.20;99.90;;;;;;5106094;27;20541;-61
2022/04/01 12:15:43;;;;;;;5.72;5.43;;;6.40;99.90;;;;;;5085676;28;20691;-62
2022/04/01 12:18:24;;;;;;;5.45;5.15;;;6.90;99.90;;;;;;5105945;27;20550;-61
2022/04/01 12:21:04;;;;;;;8.73;8.13;;;7.40;99.90;;;;;;5085521;27;20624;-62
2022/04/01 12:23:46;;;;;;;8.55;8.00;;;7.60;99.90;;;;;;5126779;27;21197;-62
2022/04/01 12:26:29;;;;;;;5.85;5.55;;;7.90;99.90;;;;;;5109844;27;1296641;-62
2022/04/01 12:29:20;;;;;;;7.00;6.53;;;8.30;99.90;;;;;;5136356;27;20544;-62
2022/04/01 12:32:02;;;;;;;4.93;4.63;;;8.40;99.90;;;;;;5136526;27;20535;-61
2022/04/01 12:34:47;;;;;;;4.90;4.60;;;8.50;99.90;;;;;;5104242;27;20546;-61
2022/04/01 12:37:27;;;;;;;5.30;5.00;;;8.60;99.90;;;;;;5099255;27;20577;-61
2022/04/01 12:40:10;;;;;;;5.25;4.95;;;8.40;99.90;;;;;;5083075;27;20585;-61
2022/04/01 12:42:51;;;;;;;4.85;4.55;;;8.30;99.90;;;;;;5083911;27;20569;-61
2022/04/01 12:45:31;;;;;;;5.45;5.15;;;8.50;99.90;;;;;;5084019;27;20570;-61
2022/04/01 12:48:24;;;;;;;4.30;4.10;;;8.50;99.90;;;;;;5072671;27;20567;-61
2022/04/01 12:51:03;;;;;;;5.60;5.20;;;8.50;99.90;;;;;;5104024;27;20581;-61
2022/04/01 12:53:54;;;;;;;5.00;4.70;;;8.30;99.90;;;;;;5083573;27;20600;-61
2022/04/01 12:56:35;;;;;;;4.85;4.55;;;8.30;99.90;;;;;;5083211;27;20524;-61
2022/04/01 12:59:17;;;;;;;4.40;4.15;;;8.70;99.90;;;;;;5074273;27;20581;-61
2022/04/01 13:02:00;;;;;;;4.25;4.05;;;9.10;99.90;;;;;;5144669;27;20534;-61
2022/04/01 13:04:44;;;;;;;4.90;4.60;;;8.80;99.90;;;;;;5144709;27;20667;-62
2022/04/01 13:07:30;;;;;;;4.72;4.50;;;8.20;99.90;;;;;;5078932;27;20598;-62
2022/04/01 13:10:16;;;;;;;8.07;7.47;;;7.90;99.90;;;;;;5123021;27;20671;-62
2022/04/01 13:12:55;;;;;;;6.05;5.70;;;7.50;99.90;;;;;;5083370;27;21601;-62
2022/04/01 13:15:35;;;;;;;8.68;7.88;;;7.20;99.90;;;;;;5103620;27;20563;-61
2022/04/01 13:18:25;;;;;;;9.45;8.75;;;7.00;99.90;;;;;;5091668;27;20700;-62
2022/04/01 13:21:05;;;;;;;4.80;4.50;;;6.80;99.90;;;;;;5082433;27;21061;-62
2022/04/01 13:23:44;;;;;;;5.03;4.63;;;6.40;99.90;;;;;;5083188;27;20571;-62
2022/04/01 13:26:24;;;;;;;5.65;5.35;;;6.00;99.90;;;;;;5082145;27;20865;-62
2022/04/01 13:29:04;;;;;;;8.05;7.47;;;5.70;99.90;;;;;;5145187;27;20681;-62
2022/04/01 13:31:44;;;;;;;6.43;6.03;;;5.70;99.90;;;;;;5124030;27;21057;-62
2022/04/01 13:34:24;;;;;;;5.38;5.07;;;6.00;99.90;;;;;;5144486;27;20538;-62
2022/04/01 13:37:04;;;;;;;5.60;5.30;;;6.10;99.90;;;;;;5081574;27;20565;-63
2022/04/01 13:39:45;;;;;;;9.82;9.23;;;5.90;99.90;;;;;;5082548;28;20668;-63
2022/04/01 13:42:25;;;;;;;11.60;10.82;;;5.80;99.90;;;;;;5083678;28;21273;-63
2022/04/01 13:45:06;;;;;;;5.65;5.35;;;5.90;99.90;;;;;;5082912;27;20549;-62
2022/04/01 13:47:46;;;;;;;5.97;5.68;;;6.00;99.90;;;;;;5079128;27;20582;-63
2022/04/01 13:50:26;;;;;;;5.70;5.40;;;6.10;99.90;;;;;;5082747;28;21321;-63
2022/04/01 13:53:18;;;;;;;5.65;5.35;;;6.10;99.90;;;;;;5103543;27;20565;-59
2022/04/01 13:55:58;;;;;;;5.68;5.38;;;5.90;99.90;;;;;;5083805;28;20555;-64
2022/04/01 13:58:38;;;;;;;5.40;5.10;;;5.80;99.90;;;;;;5075266;28;20676;-63
2022/04/01 14:01:17;;;;;;;7.90;7.40;;;5.50;99.90;;;;;;5083057;27;20571;-63
2022/04/01 14:03:57;;;;;;;5.90;5.50;;;5.30;99.90;;;;;;5101051;22;20617;-61
2022/04/01 14:06:37;;;;;;;7.07;6.38;;;5.30;99.90;;;;;;5124524;27;20945;-59
2022/04/01 14:09:18;;;;;;;8.52;7.93;;;5.30;99.90;;;;;;5103359;27;20533;-59
2022/04/01 14:11:58;;;;;;;5.03;4.72;;;5.40;99.90;;;;;;5124550;27;20675;-59
2022/04/01 14:14:38;;;;;;;7.55;7.05;;;5.40;99.90;;;;;;5156195;27;20691;-59
2022/04/01 14:17:18;;;;;;;4.93;4.53;;;5.40;99.90;;;;;;5145249;27;21070;-59
2022/04/01 14:19:59;;;;;;;5.43;5.13;;;5.30;99.90;;;;;;5123684;27;21207;-58
2022/04/01 14:22:39;;;;;;;5.70;5.40;;;5.20;99.90;;;;;;5083801;27;20552;-59
2022/04/01 14:25:19;;;;;;;7.63;7.13;;;5.10;99.90;;;;;;5107398;27;21043;-59
2022/04/01 14:27:58;;;;;;;11.23;10.45;;;5.00;99.90;;;;;;5083998;27;21112;-57
2022/04/01 14:30:38;;;;;;;11.30;10.60;;;4.90;99.90;;;;;;5125068;27;20558;-59